Time;durP1;ratioP1;P1;durP2;ratioP2;P2;SDS_P1;SDS_P2;PMS_P1;PMS_P2;Temp;Humidity;BMP_temperature;BMP_pressure;BME280_temperature;BME280_humidity;BME280_pressure;Samples;Min_cycle;Max_cycle;Signal;HPM_P1;HPM_P2
2022/08/16 00:02:06;;;;;;;14.35;11.65;;;;;;;16.33;100.00;92762.00;5091493;28;20518;-74
2022/08/16 00:04:33;;;;;;;13.80;10.50;;;;;;;16.47;100.00;92764.88;5091509;28;20381;-74
2022/08/16 00:07:02;;;;;;;12.80;10.60;;;;;;;16.62;100.00;92773.72;5091411;28;20454;-74
2022/08/16 00:09:29;;;;;;;12.43;10.70;;;;;;;16.59;100.00;92782.00;5091323;28;20056;-74
2022/08/16 00:11:55;;;;;;;13.43;10.82;;;;;;;16.66;100.00;92780.72;5092268;28;20040;-74
2022/08/16 00:14:25;;;;;;;12.18;10.23;;;;;;;16.75;100.00;92772.44;5090609;28;20044;-74
2022/08/16 00:16:52;;;;;;;13.80;10.50;;;;;;;16.71;100.00;92759.19;5090540;28;20590;-74
2022/08/16 00:19:22;;;;;;;11.77;9.88;;;;;;;16.85;100.00;92782.78;5090821;28;20047;-73
2022/08/16 00:21:49;;;;;;;14.57;9.98;;;;;;;16.86;100.00;92779.19;5090386;28;20055;-73
2022/08/16 00:24:17;;;;;;;10.90;9.52;;;;;;;16.87;100.00;92778.13;5105708;28;21185;-74
2022/08/16 00:26:44;;;;;;;12.95;9.75;;;;;;;16.73;100.00;92769.31;5110479;28;20035;-73
2022/08/16 00:29:12;;;;;;;11.57;9.38;;;;;;;16.73;100.00;92780.47;5110482;28;20043;-73
2022/08/16 00:31:39;;;;;;;13.50;10.20;;;;;;;16.76;100.00;92800.69;5111076;28;20051;-73
2022/08/16 00:34:06;;;;;;;12.23;10.30;;;;;;;16.73;100.00;92806.41;5110694;28;20123;-73
2022/08/16 00:36:33;;;;;;;11.88;10.13;;;;;;;16.72;100.00;92798.88;5110825;28;20092;-73
2022/08/16 00:39:00;;;;;;;12.38;10.38;;;;;;;16.70;100.00;92799.13;5110986;28;20163;-73
2022/08/16 00:41:30;;;;;;;12.77;10.55;;;;;;;16.67;100.00;92797.81;5110706;28;20084;-74
2022/08/16 00:43:59;;;;;;;15.20;10.73;;;;;;;16.55;100.00;92792.91;5110562;28;20096;-73
2022/08/16 00:46:32;;;;;;;16.08;10.10;;;;;;;16.66;100.00;92798.09;5110587;28;20457;-73
2022/08/16 00:49:00;;;;;;;15.13;10.55;;;;;;;16.69;100.00;92802.75;5110366;28;20047;-73
2022/08/16 00:51:28;;;;;;;14.43;10.40;;;;;;;16.62;100.00;92790.03;5110218;28;20043;-73
2022/08/16 00:53:58;;;;;;;14.23;10.68;;;;;;;16.74;100.00;92805.34;5110519;28;20047;-73
2022/08/16 00:56:29;;;;;;;13.70;10.57;;;;;;;16.78;100.00;92803.03;5110199;28;20519;-73
2022/08/16 00:58:57;;;;;;;12.52;10.13;;;;;;;16.81;100.00;92802.53;5110208;28;20043;-73
2022/08/16 01:01:23;;;;;;;13.90;10.90;;;;;;;16.72;100.00;92804.06;5110420;28;20105;-73
2022/08/16 01:03:52;;;;;;;12.57;10.48;;;;;;;16.69;100.00;92802.75;5109961;28;20105;-73
2022/08/16 01:06:21;;;;;;;12.63;9.98;;;;;;;16.72;100.00;92811.84;5110327;28;20096;-73
2022/08/16 01:08:51;;;;;;;12.90;11.10;;;;;;;16.77;100.00;92810.03;5110164;28;20051;-73
2022/08/16 01:11:18;;;;;;;13.50;10.27;;;;;;;16.23;100.00;92723.88;5109894;28;20093;-73
2022/08/16 01:13:49;;;;;;;13.30;10.75;;;;;;;16.87;100.00;92817.06;5109851;28;20039;-73
2022/08/16 01:16:19;;;;;;;13.52;11.10;;;;;;;16.95;100.00;92833.91;5089435;28;20048;-73
2022/08/16 01:18:50;;;;;;;15.32;10.30;;;;;;;16.91;100.00;92820.69;5089248;28;20044;-73
2022/08/16 01:21:27;;;;;;;13.30;10.52;;;;;;;16.92;100.00;92824.84;5107093;28;20495;-73
2022/08/16 01:24:10;;;;;;;13.48;10.80;;;;;;;16.87;100.00;92819.66;5109455;28;20096;-73
2022/08/16 01:26:39;;;;;;;14.10;10.60;;;;;;;16.72;100.00;92806.66;5109725;28;20491;-73
2022/08/16 01:29:10;;;;;;;12.57;9.80;;;;;;;16.86;100.00;92827.69;5109771;28;20814;-73
2022/08/16 01:31:37;;;;;;;14.95;10.35;;;;;;;16.92;100.00;92829.22;5109902;28;20405;-73
2022/08/16 01:34:04;;;;;;;12.27;10.45;;;;;;;16.96;100.00;92835.47;5109529;28;20039;-73
2022/08/16 01:36:32;;;;;;;11.93;10.05;;;;;;;17.01;100.00;92835.47;5109283;28;20055;-73
2022/08/16 01:39:00;;;;;;;13.07;10.48;;;;;;;17.07;100.00;92849.25;5109347;28;20036;-74
2022/08/16 01:41:29;;;;;;;13.15;9.90;;;;;;;17.13;100.00;92839.66;5109550;28;20113;-73
2022/08/16 01:43:57;;;;;;;12.95;10.40;;;;;;;17.19;100.00;92836.03;5102969;28;20104;-73
2022/08/16 01:46:28;;;;;;;13.02;10.38;;;;;;;17.25;100.00;92834.22;5089048;28;20504;-73
2022/08/16 01:48:57;;;;;;;12.98;9.52;;;;;;;17.30;100.00;92844.59;5089192;28;20075;-73
2022/08/16 01:51:26;;;;;;;12.57;9.93;;;;;;;17.33;100.00;92838.88;5089018;28;20097;-73
2022/08/16 01:53:53;;;;;;;15.07;10.48;;;;;;;17.19;100.00;92833.44;5089062;28;20119;-73
2022/08/16 01:56:22;;;;;;;14.90;10.05;;;;;;;17.32;100.00;92851.06;5089042;28;20093;-73
2022/08/16 01:58:49;;;;;;;12.27;9.68;;;;;;;17.28;100.00;92842.25;5088639;28;20434;-73
2022/08/16 02:01:16;;;;;;;14.25;10.40;;;;;;;17.26;100.00;92843.56;5106784;28;20104;-73
2022/08/16 02:03:43;;;;;;;12.13;9.55;;;;;;;17.23;100.00;92842.25;5109170;28;20043;-73
2022/08/16 02:06:09;;;;;;;13.13;9.82;;;;;;;17.21;100.00;92844.31;5109131;28;20117;-73
2022/08/16 02:08:36;;;;;;;12.23;9.52;;;;;;;17.14;100.00;92826.44;5109005;28;20429;-72
2022/08/16 02:11:07;;;;;;;13.50;10.35;;;;;;;17.23;100.00;92840.44;5109202;28;20461;-73
2022/08/16 02:13:36;;;;;;;13.30;10.18;;;;;;;17.25;100.00;92839.41;5109136;28;20070;-72
2022/08/16 02:16:04;;;;;;;12.32;9.88;;;;;;;17.26;100.00;92846.16;5108915;28;20515;-72
2022/08/16 02:18:30;;;;;;;12.43;10.30;;;;;;;17.28;100.00;92864.84;5109010;28;20051;-72
2022/08/16 02:20:57;;;;;;;15.68;10.15;;;;;;;17.03;100.00;92861.97;5108899;28;20046;-72
2022/08/16 02:23:24;;;;;;;14.10;10.38;;;;;;;17.05;100.00;92859.91;5108801;28;20097;-72
2022/08/16 02:25:51;;;;;;;14.32;11.75;;;;;;;17.13;100.00;92876.75;5108796;28;20047;-72
2022/08/16 02:28:18;;;;;;;14.05;10.77;;;;;;;17.16;100.00;92878.84;5108847;28;20138;-72
2022/08/16 02:30:47;;;;;;;17.70;12.30;;;;;;;17.14;100.00;92875.75;5109050;28;20043;-72
2022/08/16 02:33:14;;;;;;;13.35;11.20;;;;;;;17.18;100.00;92887.16;5108982;28;20445;-72
2022/08/16 02:35:41;;;;;;;16.60;11.95;;;;;;;17.15;100.00;92882.50;5108800;28;20099;-72
2022/08/16 02:38:07;;;;;;;15.63;12.40;;;;;;;17.12;100.00;92870.00;5108581;28;20084;-74
2022/08/16 02:40:34;;;;;;;16.95;11.05;;;;;;;17.25;100.00;92878.34;5108857;28;20047;-74
2022/08/16 02:43:01;;;;;;;14.45;10.40;;;;;;;17.29;100.00;92881.97;5108907;28;20048;-73
2022/08/16 02:45:28;;;;;;;13.90;10.68;;;;;;;17.22;100.00;92879.66;5108686;28;20058;-74
2022/08/16 02:47:57;;;;;;;14.63;11.60;;;;;;;17.22;100.00;92895.97;5108588;28;20043;-74
2022/08/16 02:50:25;;;;;;;17.90;11.07;;;;;;;17.23;100.00;92891.59;5109755;28;20048;-74
2022/08/16 02:52:52;;;;;;;14.93;10.70;;;;;;;17.14;100.00;92882.75;5112913;28;20140;-74
2022/08/16 02:55:19;;;;;;;14.65;11.40;;;;;;;17.01;100.00;92864.03;5112600;28;20550;-73
2022/08/16 02:57:47;;;;;;;14.45;11.30;;;;;;;17.04;100.00;92879.09;5112385;28;20043;-74
2022/08/16 03:00:15;;;;;;;14.40;10.63;;;;;;;17.09;100.00;92883.53;5112640;28;20571;-74
2022/08/16 03:02:44;;;;;;;13.75;10.30;;;;;;;17.13;100.00;92881.19;5112311;28;21112;-76
2022/08/16 03:05:14;;;;;;;13.27;10.65;;;;;;;17.11;100.00;92865.09;5112133;28;20109;-76
2022/08/16 03:07:42;;;;;;;15.15;11.35;;;;;;;17.13;100.00;92870.81;5092246;28;20090;-75
2022/08/16 03:10:11;;;;;;;13.10;10.25;;;;;;;17.10;100.00;92864.31;5092072;28;20036;-75
2022/08/16 03:12:38;;;;;;;13.75;10.88;;;;;;;17.11;100.00;92865.88;5110092;28;20139;-75
2022/08/16 03:15:07;;;;;;;14.10;10.43;;;;;;;17.07;100.00;92865.59;5112696;28;20048;-75
2022/08/16 03:17:34;;;;;;;13.10;10.57;;;;;;;17.08;100.00;92864.56;5112336;28;20074;-75
2022/08/16 03:20:01;;;;;;;15.73;11.93;;;;;;;17.08;100.00;92866.41;5112401;28;20043;-75
2022/08/16 03:22:29;;;;;;;15.55;10.73;;;;;;;17.05;100.00;92856.53;5112451;28;20437;-75
2022/08/16 03:24:58;;;;;;;14.10;10.80;;;;;;;17.01;100.00;92866.63;5112085;28;20392;-75
2022/08/16 03:27:26;;;;;;;15.55;11.02;;;;;;;16.96;100.00;92859.59;5112215;28;20096;-75
2022/08/16 03:29:53;;;;;;;14.60;11.07;;;;;;;16.94;100.00;92853.13;5112155;28;20105;-74
2022/08/16 03:32:20;;;;;;;14.43;10.85;;;;;;;16.73;100.00;92839.31;5112140;28;20043;-74
2022/08/16 03:34:47;;;;;;;13.98;11.50;;;;;;;16.88;100.00;92873.06;5111821;28;20040;-75
2022/08/16 03:37:14;;;;;;;16.80;11.63;;;;;;;16.82;100.00;92861.91;5111903;28;20267;-75
2022/08/16 03:39:42;;;;;;;14.88;11.75;;;;;;;16.81;100.00;92872.56;5111928;28;20044;-75
2022/08/16 03:42:09;;;;;;;13.80;11.05;;;;;;;16.79;100.00;92866.81;5111478;28;20108;-75
2022/08/16 03:44:36;;;;;;;13.02;10.50;;;;;;;16.78;100.00;92865.28;5111350;28;20054;-75
2022/08/16 03:47:03;;;;;;;14.25;10.68;;;;;;;16.70;100.00;92835.44;5111833;28;20423;-75
2022/08/16 03:49:29;;;;;;;14.23;10.95;;;;;;;16.81;100.00;92857.75;5111729;28;20385;-75
2022/08/16 03:51:56;;;;;;;14.25;11.13;;;;;;;16.82;100.00;92850.75;5111790;28;21434;-75
2022/08/16 03:54:23;;;;;;;13.23;10.40;;;;;;;16.87;100.00;92868.13;5111469;28;20043;-75
2022/08/16 03:56:51;;;;;;;14.13;11.00;;;;;;;16.81;100.00;92865.53;5111259;28;20039;-75
2022/08/16 03:59:18;;;;;;;14.45;10.13;;;;;;;16.78;100.00;92873.84;5111575;28;20450;-73
2022/08/16 04:01:45;;;;;;;14.15;11.05;;;;;;;16.78;100.00;92866.06;5110073;28;20089;-74
2022/08/16 04:04:12;;;;;;;18.65;11.73;;;;;;;16.73;100.00;92849.69;5110744;28;20105;-75
2022/08/16 04:06:38;;;;;;;15.35;11.30;;;;;;;16.83;100.00;92863.47;5111478;28;20046;-74
2022/08/16 04:09:05;;;;;;;13.68;11.00;;;;;;;16.86;100.00;92864.00;5111317;28;20047;-75
2022/08/16 04:11:32;;;;;;;15.18;11.57;;;;;;;16.94;100.00;92866.09;5111224;28;20092;-75
2022/08/16 04:14:00;;;;;;;17.77;11.70;;;;;;;17.01;100.00;92858.03;5111219;28;20108;-75
2022/08/16 04:16:27;;;;;;;15.18;11.52;;;;;;;17.05;100.00;92854.72;5110824;28;20092;-75
2022/08/16 04:18:54;;;;;;;16.38;12.30;;;;;;;17.17;100.00;92861.47;5111115;28;20093;-73
2022/08/16 04:21:21;;;;;;;16.38;12.57;;;;;;;17.17;100.00;92858.88;5096169;28;20113;-73
2022/08/16 04:23:47;;;;;;;15.80;11.73;;;;;;;17.24;100.00;92872.38;5090600;28;20085;-74
2022/08/16 04:26:14;;;;;;;15.63;11.30;;;;;;;17.30;100.00;92873.91;5090689;28;20082;-74
2022/08/16 04:28:41;;;;;;;14.32;11.73;;;;;;;17.32;100.00;92858.09;5090789;28;20039;-74
2022/08/16 04:31:10;;;;;;;13.23;10.95;;;;;;;17.42;100.00;92862.50;5090551;28;20040;-75
2022/08/16 04:33:37;;;;;;;15.80;10.70;;;;;;;17.48;100.00;92854.44;5108253;28;20044;-75
2022/08/16 04:36:04;;;;;;;15.23;11.25;;;;;;;17.54;100.00;92863.00;5110447;28;20052;-75
2022/08/16 04:38:31;;;;;;;15.48;11.05;;;;;;;17.58;100.00;92856.25;5110925;28;20051;-75
2022/08/16 04:40:58;;;;;;;14.93;11.57;;;;;;;17.64;100.00;92846.66;5110465;28;20487;-75
2022/08/16 04:43:24;;;;;;;14.75;11.30;;;;;;;17.50;100.00;92804.88;5110455;28;20483;-74
2022/08/16 04:45:51;;;;;;;13.73;10.05;;;;;;;17.72;100.00;92840.91;5110528;28;20051;-75
2022/08/16 04:48:19;;;;;;;16.88;11.95;;;;;;;17.66;100.00;92817.78;5110393;28;20054;-75
2022/08/16 04:50:48;;;;;;;16.80;10.98;;;;;;;17.77;100.00;92840.91;5110463;28;20096;-75
2022/08/16 04:53:15;;;;;;;15.32;11.00;;;;;;;17.70;100.00;92840.41;5110129;28;20051;-75
2022/08/16 04:55:43;;;;;;;15.43;11.65;;;;;;;17.77;100.00;92858.28;5110538;28;20067;-75
2022/08/16 04:58:10;;;;;;;17.42;12.05;;;;;;;17.82;100.00;92854.94;5110116;28;20036;-75
2022/08/16 05:00:37;;;;;;;17.70;12.55;;;;;;;17.90;100.00;92856.97;5110555;28;20039;-75
2022/08/16 05:03:05;;;;;;;19.08;13.68;;;;;;;17.94;100.00;92858.00;5110285;28;20475;-75
2022/08/16 05:05:35;;;;;;;16.98;13.27;;;;;;;18.01;100.00;92866.28;5110119;28;20044;-75
2022/08/16 05:08:03;;;;;;;18.08;13.40;;;;;;;17.84;100.00;92855.44;5103199;28;20567;-75
2022/08/16 05:10:30;;;;;;;17.98;12.73;;;;;;;17.85;100.00;92862.19;5088126;28;20048;-74
2022/08/16 05:12:57;;;;;;;21.92;16.63;;;;;;;17.83;100.00;92864.28;5088692;28;20097;-74
2022/08/16 05:15:25;;;;;;;19.25;16.00;;;;;;;17.86;100.00;92863.72;5089584;28;20537;-73
2022/08/16 05:17:52;;;;;;;19.80;13.45;;;;;;;18.02;100.00;92872.28;5089688;28;20078;-75
2022/08/16 05:20:19;;;;;;;20.10;14.98;;;;;;;18.02;100.00;92857.44;5098676;28;20097;-75
2022/08/16 05:22:48;;;;;;;20.27;14.73;;;;;;;18.28;100.00;92873.00;5094606;28;20682;-74
2022/08/16 05:25:16;;;;;;;18.90;11.82;;;;;;;18.44;100.00;92875.56;5089644;28;20508;-74
2022/08/16 05:27:43;;;;;;;20.85;12.70;;;;;;;18.56;100.00;92873.41;5097598;28;20512;-74
2022/08/16 05:30:12;;;;;;;16.83;12.70;;;;;;;18.63;100.00;92861.94;5105462;28;20070;-74
2022/08/16 05:32:40;;;;;;;16.17;11.80;;;;;;;18.83;100.00;92874.03;5097406;28;20492;-74
2022/08/16 05:35:09;;;;;;;18.65;12.43;;;;;;;18.94;100.00;92870.34;5101848;28;20052;-75
2022/08/16 05:37:37;;;;;;;16.73;12.40;;;;;;;19.13;100.00;92859.31;5102951;28;20056;-75
2022/08/16 05:40:08;;;;;;;16.00;11.73;;;;;;;19.26;100.00;92849.34;5091277;28;20044;-75
2022/08/16 05:42:34;;;;;;;15.75;11.30;;;;;;;19.36;100.00;92855.22;5089771;28;20040;-75
2022/08/16 05:45:01;;;;;;;15.32;11.57;;;;;;;19.52;100.00;92855.09;5103573;28;20097;-75
2022/08/16 05:47:28;;;;;;;17.63;12.20;;;;;;;19.62;100.00;92849.81;5102191;28;20039;-75
2022/08/16 05:49:55;;;;;;;13.68;9.68;;;;;;;19.76;100.00;92854.34;5101186;28;20065;-74
2022/08/16 05:52:22;;;;;;;13.52;9.35;;;;;;;19.90;100.00;92855.28;5087825;28;20456;-76
2022/08/16 05:54:48;;;;;;;14.27;9.73;;;;;;;20.11;100.00;92855.09;5088987;28;20044;-74
2022/08/16 05:57:19;;;;;;;12.27;9.60;;;;;;;20.28;100.00;92856.47;5089133;28;20507;-74
2022/08/16 05:59:47;;;;;;;14.45;9.75;;;;;;;20.45;100.00;92863.06;5089271;28;20439;-74
2022/08/16 06:02:14;;;;;;;14.80;9.60;;;;;;;20.58;100.00;92864.97;5089551;28;20180;-77
2022/08/16 06:04:41;;;;;;;11.57;8.52;;;;;;;20.73;100.00;92863.22;5089533;28;20044;-78
2022/08/16 06:07:08;;;;;;;14.38;8.82;;;;;;;20.91;100.00;92862.47;5089399;28;20129;-78
2022/08/16 06:09:35;;;;;;;13.30;10.57;;;;;;;21.07;100.00;92857.81;5089425;28;20549;-78
2022/08/16 06:12:02;;;;;;;12.27;9.57;;;;;;;21.27;100.00;92861.19;5089431;28;20109;-78
2022/08/16 06:14:30;;;;;;;11.10;8.95;;;;;;;21.39;100.00;92865.97;5089051;28;20524;-77
2022/08/16 06:16:57;;;;;;;14.55;9.75;;;;;;;21.49;100.00;92865.03;5089415;28;20048;-77
2022/08/16 06:19:24;;;;;;;12.93;8.65;;;;;;;21.53;100.00;92855.56;5089420;28;20048;-77
2022/08/16 06:21:50;;;;;;;13.35;8.65;;;;;;;21.72;100.00;92865.19;5088596;28;20046;-76
2022/08/16 06:24:17;;;;;;;11.50;8.73;;;;;;;21.94;100.00;92872.38;5089308;28;20052;-77
2022/08/16 06:26:44;;;;;;;12.43;8.57;;;;;;;22.20;99.64;92874.53;5092241;28;20105;-76
2022/08/16 06:29:11;;;;;;;13.73;8.45;;;;;;;22.45;96.65;92874.34;5093286;28;20048;-76
2022/08/16 06:31:39;;;;;;;9.88;7.25;;;;;;;22.73;94.72;92872.47;5093374;28;20040;-76
2022/08/16 06:34:06;;;;;;;9.52;7.15;;;;;;;22.99;93.40;92868.56;5092928;28;20053;-76
2022/08/16 06:36:33;;;;;;;11.60;7.43;;;;;;;23.26;91.34;92867.69;5093372;28;20144;-76
2022/08/16 06:38:59;;;;;;;8.65;6.85;;;;;;;23.45;87.88;92872.00;5093287;28;20097;-76
2022/08/16 06:41:26;;;;;;;9.85;6.75;;;;;;;23.67;85.66;92871.22;5093058;28;20468;-76
2022/08/16 06:43:53;;;;;;;11.48;7.00;;;;;;;23.83;84.96;92861.09;5102016;28;20040;-76
2022/08/16 06:46:25;;;;;;;10.65;6.85;;;;;;;24.09;84.77;92870.19;5109744;28;20441;-76
2022/08/16 06:48:54;;;;;;;15.18;7.82;;;;;;;24.31;85.21;92868.56;5093283;28;20074;-77
2022/08/16 06:51:21;;;;;;;9.00;6.47;;;;;;;24.50;82.01;92863.84;5093091;28;20108;-77
2022/08/16 06:53:48;;;;;;;7.78;5.75;;;;;;;24.73;81.28;92868.19;5092793;28;20427;-77
2022/08/16 06:56:14;;;;;;;10.75;6.80;;;;;;;24.95;78.52;92872.59;5093013;28;20090;-77
2022/08/16 06:58:41;;;;;;;10.93;5.95;;;;;;;25.20;77.49;92867.63;5092726;28;20093;-78
2022/08/16 07:01:08;;;;;;;9.63;6.20;;;;;;;25.44;77.46;92863.75;5093182;28;20043;-78
2022/08/16 07:03:35;;;;;;;10.07;6.85;;;;;;;25.64;76.69;92862.34;5092703;28;20052;-77
2022/08/16 07:06:04;;;;;;;9.90;6.60;;;;;;;25.82;75.55;92868.34;5092492;28;20044;-77
2022/08/16 07:08:31;;;;;;;8.45;6.70;;;;;;;26.04;73.10;92869.19;5092468;28;20101;-77
2022/08/16 07:10:58;;;;;;;18.30;6.95;;;;;;;26.22;70.56;92866.50;5092327;28;21557;-77
2022/08/16 07:13:26;;;;;;;10.02;6.32;;;;;;;26.40;69.28;92865.38;5092147;28;20139;-77
2022/08/16 07:15:53;;;;;;;11.35;6.15;;;;;;;26.58;68.74;92861.84;5092220;28;20044;-77
2022/08/16 07:18:20;;;;;;;8.60;5.57;;;;;;;26.74;67.59;92854.94;5092340;28;20048;-76
2022/08/16 07:20:48;;;;;;;7.88;6.07;;;;;;;26.98;66.94;92858.06;5091892;28;20703;-76
2022/08/16 07:23:16;;;;;;;9.27;5.50;;;;;;;27.14;64.59;92852.97;5092441;28;20511;-76
2022/08/16 07:25:43;;;;;;;7.78;5.80;;;;;;;27.28;63.60;92847.41;5092397;28;20052;-78
2022/08/16 07:28:13;;;;;;;8.25;5.43;;;;;;;27.33;61.36;92837.44;5092349;28;20040;-78
2022/08/16 07:30:41;;;;;;;7.60;5.38;;;;;;;27.49;60.28;92842.09;5092401;28;20112;-78
2022/08/16 07:33:09;;;;;;;7.13;5.22;;;;;;;27.79;61.73;92843.84;5092398;28;20044;-78
2022/08/16 07:35:36;;;;;;;7.47;5.50;;;;;;;27.98;60.75;92856.53;5091968;28;20066;-79
2022/08/16 07:38:05;;;;;;;7.35;4.75;;;;;;;28.11;57.77;92850.16;5091809;28;20492;-79
2022/08/16 07:40:33;;;;;;;8.73;5.25;;;;;;;28.24;58.67;92843.03;5092163;28;20040;-78
2022/08/16 07:43:00;;;;;;;6.82;4.93;;;;;;;28.41;55.90;92846.53;5092437;28;20043;-79
2022/08/16 07:45:27;;;;;;;7.45;4.93;;;;;;;28.43;56.90;92841.72;5105468;28;20052;-78
2022/08/16 07:47:54;;;;;;;7.75;5.47;;;;;;;28.56;55.74;92833.78;5092527;28;20449;-79
2022/08/16 07:50:22;;;;;;;9.38;5.78;;;;;;;28.62;57.48;92835.09;5092035;28;20090;-79
2022/08/16 07:52:49;;;;;;;7.80;5.50;;;;;;;28.84;54.37;92836.47;5091903;28;20048;-79
2022/08/16 07:55:17;;;;;;;9.75;4.85;;;;;;;29.06;55.91;92834.44;5091924;28;20051;-80
2022/08/16 07:57:45;;;;;;;7.85;4.72;;;;;;;29.19;53.62;92833.31;5091665;28;20135;-79
2022/08/16 08:00:13;;;;;;;6.50;4.35;;;;;;;29.13;51.13;92823.28;5091807;28;20055;-79
2022/08/16 08:02:40;;;;;;;7.35;5.10;;;;;;;29.28;52.80;92827.88;5091754;28;20061;-79
2022/08/16 08:05:07;;;;;;;6.43;4.57;;;;;;;29.42;53.16;92838.06;5091176;28;20048;-79
2022/08/16 08:07:35;;;;;;;5.70;4.30;;;;;;;29.24;49.31;92842.88;5091949;28;20046;-79
2022/08/16 08:10:01;;;;;;;7.03;4.65;;;;;;;29.14;52.07;92841.47;5092061;28;20280;-79
2022/08/16 08:12:29;;;;;;;6.13;4.32;;;;;;;29.17;52.84;92832.09;5091021;28;20044;-80
2022/08/16 08:14:57;;;;;;;8.27;5.45;;;;;;;29.40;52.75;92848.22;5091306;28;20130;-80
2022/08/16 08:17:24;;;;;;;6.75;4.47;;;;;;;29.53;52.42;92841.00;5091619;28;20063;-79
2022/08/16 08:19:50;;;;;;;5.60;3.80;;;;;;;28.80;49.70;92841.66;5091285;28;20557;-80
2022/08/16 08:22:18;;;;;;;6.72;4.35;;;;;;;28.94;52.66;92841.31;5091366;28;20093;-80
2022/08/16 08:24:45;;;;;;;5.85;4.13;;;;;;;29.18;51.91;92839.72;5091266;28;20136;-80
2022/08/16 08:27:13;;;;;;;6.05;4.22;;;;;;;29.43;50.78;92842.25;5088735;28;20445;-80
2022/08/16 08:29:40;;;;;;;6.95;3.95;;;;;;;29.53;49.33;92850.81;5089505;28;20055;-80
2022/08/16 08:32:10;;;;;;;5.00;3.90;;;;;;;29.06;49.16;92853.72;5089485;28;20040;-84
2022/08/16 08:34:36;;;;;;;4.75;3.58;;;;;;;28.56;48.32;92834.56;5090597;28;20044;-83
2022/08/16 08:37:04;;;;;;;6.53;4.57;;;;;;;28.78;50.24;92851.00;5090472;28;20040;-83
2022/08/16 08:39:31;;;;;;;5.63;3.80;;;;;;;29.10;51.30;92856.47;5107655;28;20088;-82
2022/08/16 08:41:57;;;;;;;5.43;4.10;;;;;;;29.53;51.60;92845.53;5090669;28;20413;-81
2022/08/16 08:44:25;;;;;;;7.97;4.65;;;;;;;29.84;47.43;92860.69;5102724;28;20495;-82
2022/08/16 08:46:56;;;;;;;7.30;5.05;;;;;;;29.96;51.14;92843.19;5105865;28;20232;-81
2022/08/16 08:49:24;;;;;;;7.88;4.75;;;;;;;30.10;50.87;92850.72;5110276;28;20059;-80
2022/08/16 08:51:51;;;;;;;7.10;4.97;;;;;;;30.32;51.00;92848.59;5095325;28;20048;-81
2022/08/16 08:54:17;;;;;;;7.40;4.60;;;;;;;30.51;49.87;92853.94;5091103;28;20051;-81
2022/08/16 08:56:45;;;;;;;6.55;4.82;;;;;;;30.69;49.59;92858.09;5090276;28;20040;-82
2022/08/16 08:59:12;;;;;;;7.75;5.20;;;;;;;30.85;48.74;92858.06;5098717;28;20063;-82
2022/08/16 09:01:40;;;;;;;6.95;5.25;;;;;;;30.91;49.08;92856.72;5108267;28;20059;-81
2022/08/16 09:04:07;;;;;;;8.27;6.05;;;;;;;30.98;48.60;92845.44;5095680;28;20044;-81
2022/08/16 09:06:36;;;;;;;7.70;4.65;;;;;;;31.23;48.00;92861.88;5102198;28;20129;-80
2022/08/16 09:09:04;;;;;;;9.60;4.95;;;;;;;31.22;46.48;92863.00;5090491;28;20055;-80
2022/08/16 09:11:32;;;;;;;8.20;4.80;;;;;;;31.48;48.46;92860.84;5090698;28;20044;-80
2022/08/16 09:13:59;;;;;;;6.57;5.15;;;;;;;31.59;46.82;92862.56;5090402;28;20085;-80
2022/08/16 09:16:26;;;;;;;9.20;6.03;;;;;;;31.80;47.09;92865.97;5092891;28;20051;-80
2022/08/16 09:18:53;;;;;;;9.40;5.25;;;;;;;32.01;45.84;92870.13;5098728;28;20052;-81
2022/08/16 09:21:20;;;;;;;12.57;6.05;;;;;;;32.07;46.99;92852.78;5089966;28;20119;-80
2022/08/16 09:23:49;;;;;;;9.73;5.35;;;;;;;32.11;46.12;92846.38;5090187;28;20048;-81
2022/08/16 09:26:16;;;;;;;7.75;5.05;;;;;;;32.26;46.43;92867.88;5089699;28;20446;-80
2022/08/16 09:28:43;;;;;;;6.30;5.05;;;;;;;32.37;43.73;92873.34;5090012;28;20125;-81
2022/08/16 09:31:14;;;;;;;6.75;4.88;;;;;;;32.47;46.15;92866.69;5090103;28;20086;-81
2022/08/16 09:33:44;;;;;;;5.85;4.63;;;;;;;32.24;42.93;92860.25;5089992;28;20048;-82
2022/08/16 09:36:12;;;;;;;5.75;4.60;;;;;;;32.42;44.46;92856.34;5089590;28;20067;-83
2022/08/16 09:38:39;;;;;;;7.53;4.78;;;;;;;32.41;45.64;92839.66;5089717;28;20058;-81
2022/08/16 09:41:10;;;;;;;5.72;4.50;;;;;;;32.73;43.34;92851.84;5090107;28;20641;-82
2022/08/16 09:43:38;;;;;;;5.72;4.28;;;;;;;32.90;43.43;92853.97;5096060;28;20492;-82
2022/08/16 09:46:07;;;;;;;5.60;4.30;;;;;;;32.85;42.10;92853.53;5098942;28;20047;-83
2022/08/16 09:48:36;;;;;;;8.07;4.90;;;;;;;32.67;43.32;92843.41;5104458;28;20052;-82
2022/08/16 09:51:04;;;;;;;8.95;5.50;;;;;;;32.73;44.26;92849.19;5089956;28;20446;-82
2022/08/16 09:53:31;;;;;;;5.80;4.53;;;;;;;32.36;42.97;92824.72;5092002;28;20047;-82
2022/08/16 09:56:00;;;;;;;10.15;4.22;;;;;;;32.60;42.38;92838.00;5092428;28;20062;-83
2022/08/16 09:58:33;;;;;;;6.45;4.78;;;;;;;32.82;43.45;92852.38;5093399;28;20067;-82
2022/08/16 10:01:02;;;;;;;6.72;4.63;;;;;;;33.00;42.97;92843.88;5093870;28;20051;-82
2022/08/16 10:03:30;;;;;;;6.63;4.57;;;;;;;32.96;40.99;92846.47;5095394;28;20055;-83
2022/08/16 10:05:57;;;;;;;8.43;5.28;;;;;;;32.89;43.74;92831.19;5093632;28;20139;-81
2022/08/16 10:08:24;;;;;;;5.57;4.07;;;;;;;32.99;42.06;92840.44;5091737;28;20044;-82
2022/08/16 10:13:34;;;;;;;5.28;4.07;;;;;;;33.14;42.87;92840.63;5088669;28;20516;-83
2022/08/16 10:16:01;;;;;;;6.07;3.83;;;;;;;33.26;41.85;92845.69;5090373;28;20123;-82
2022/08/16 10:18:30;;;;;;;5.40;4.03;;;;;;;33.38;42.30;92844.69;5090099;28;20117;-81
2022/08/16 10:20:58;;;;;;;5.20;3.70;;;;;;;33.49;41.81;92844.03;5090079;28;20124;-84
2022/08/16 10:23:25;;;;;;;6.63;4.18;;;;;;;33.32;40.57;92849.56;5090061;28;20097;-84
2022/08/16 10:25:52;;;;;;;6.22;4.07;;;;;;;33.36;41.85;92841.59;5090052;28;20098;-83
2022/08/16 10:28:20;;;;;;;8.45;4.20;;;;;;;33.28;41.36;92854.06;5089664;28;20507;-82
2022/08/16 10:30:48;;;;;;;5.82;4.00;;;;;;;32.93;41.86;92850.63;5089560;28;20105;-83
2022/08/16 10:33:15;;;;;;;5.07;3.72;;;;;;;32.83;42.31;92851.25;5089830;28;20059;-83
2022/08/16 10:35:44;;;;;;;7.80;4.00;;;;;;;32.37;41.32;92858.19;5089462;28;20063;-83
2022/08/16 10:38:11;;;;;;;5.10;3.60;;;;;;;32.27;42.22;92842.84;5089488;28;20052;-84
2022/08/16 10:40:39;;;;;;;7.10;4.28;;;;;;;32.28;42.79;92851.56;5089558;28;20464;-83
2022/08/16 10:43:06;;;;;;;7.95;4.00;;;;;;;32.05;42.93;92847.81;5090420;28;20644;-83
2022/08/16 10:45:34;;;;;;;6.68;4.45;;;;;;;31.95;42.87;92854.50;5102606;28;20108;-83
2022/08/16 10:48:03;;;;;;;6.53;3.83;;;;;;;30.99;43.20;92849.63;5089814;28;20109;-83
2022/08/16 10:50:31;;;;;;;5.45;3.78;;;;;;;30.68;44.03;92838.75;5089596;28;20078;-83
2022/08/16 10:52:58;;;;;;;7.93;4.80;;;;;;;30.69;45.13;92837.69;5093475;28;20044;-82
2022/08/16 10:55:25;;;;;;;6.15;4.80;;;;;;;30.89;45.63;92846.44;5095627;28;20101;-82
2022/08/16 10:57:55;;;;;;;6.25;4.10;;;;;;;30.71;45.23;92832.81;5099158;28;20048;-82
2022/08/16 11:00:21;;;;;;;5.00;3.78;;;;;;;30.87;45.71;92845.25;5103521;28;20438;-82
2022/08/16 11:02:48;;;;;;;5.75;3.88;;;;;;;30.86;46.10;92841.81;5089227;28;20113;-81
2022/08/16 11:05:17;;;;;;;7.70;3.97;;;;;;;30.89;45.13;92835.84;5089410;28;20097;-81
2022/08/16 11:07:45;;;;;;;5.60;3.60;;;;;;;30.68;44.18;92846.72;5089757;28;20063;-80
2022/08/16 11:10:15;;;;;;;5.63;4.10;;;;;;;31.03;46.21;92847.84;5089445;28;20052;-80
2022/08/16 11:12:42;;;;;;;5.40;3.30;;;;;;;31.33;45.40;92836.72;5106040;28;20055;-80
2022/08/16 11:15:10;;;;;;;6.05;4.15;;;;;;;31.57;44.04;92832.19;5092916;28;20044;-81
2022/08/16 11:17:38;;;;;;;8.25;4.40;;;;;;;31.99;44.73;92835.97;5092750;28;20138;-81
2022/08/16 11:20:06;;;;;;;5.85;3.30;;;;;;;32.36;42.91;92842.59;5092245;28;20056;-83
2022/08/16 11:22:36;;;;;;;4.85;3.00;;;;;;;32.48;41.14;92831.78;5093656;28;20131;-83
2022/08/16 11:25:02;;;;;;;4.90;3.25;;;;;;;32.46;41.52;92820.75;5101668;28;20389;-83